Cape Canaveral, Florida
Current Conditions -  °F | °C
As of 7:58 AM on Friday 24 Oct 2014 (Local Time) from KXMR Reporting Station
Clear Clear  
Wind Chill: 68°   Ceiling: Unl
Heat Index: 68°   Visibility: 10mi
Dew Point: 55°   Wind: 5mph
Humidity: 63%   Direction: 80°E
Pressure: 29.95"   Gusts: NA
Location:  28.38°N, 80.6°W
Report Text: KXMR 241158Z AUTO 08004KT 10SM CLR 20/13 A2995 RMK AO2 SLP145 T02020130 10213 20198 51007
Loading
Personal Weather Stations






























Interactive Weather Map
Tropical Storm Tracking
New forecast layout! Learn more

10-Day Weather Forecast

Advertisements
Track Severe Weather on mobile